Latest Coastal Weather Observations for Garden Island

IDW60701

Issued at 1:33 am WST Thursday 3 September 2026 (issued every 10 minutes, with the page automatically refreshed every 10 minutes)

About coastal observations | Map of coastal stations | Coastal observations for WA | Marine services | Other Formats
Station Details ID: 009256 Name: GARDEN ISLAND HSF Lat: -32.24 Lon: 115.68 Height: 6.0 m
Data from the previous 72 hours. | See also: Recent months at Garden Island
Date/Time
WST
Wind Sea
Height
m
Swell Vis
km
Cloud Weather Temp
°C
Press
MSL
hPa
Rain since
9am
mm
Dir  Spd
kts
Gust
kts
Height
m
Period
s
Dir
03/01:30am SSW 1 6 - - - - - - - 13.6 1020.8 5.6
03/01:00am SSE 4 5 - - - - - - - 13.7 1020.8 5.2
03/12:30am SSE 5 6 - - - - - - - 13.7 1020.9 5.2
03/12:00am CALM 0 0 - - - - - - - 13.8 1021.4 5.2
 
Date/Time
WST
Wind Sea
Height
m
Swell Vis
km
Cloud Weather Temp
°C
Press
MSL
hPa
Rain since
9am
mm
Dir  Spd
kts
Gust
kts
Height
m
Period
s
Dir
02/11:30pm CALM 0 0 - - - - - - - 13.8 1021.6 5.2
02/11:00pm SSE 1 5 - - - - - - - 13.7 1022.0 5.2
02/10:30pm SSE 5 6 - - - - - - - 13.3 1022.1 5.2
02/10:00pm SSE 5 6 - - - - - - - 13.2 1022.2 5.2
02/09:30pm SSE 2 6 - - - - - - - 13.7 1022.3 5.2
02/09:00pm CALM 0 0 - - - - - - - 13.8 1022.4 5.2
02/08:30pm CALM 0 0 - - - - - - - 13.8 1022.4 5.2
02/08:00pm CALM 0 0 - - - - - - - 14.2 1022.2 5.2
02/07:30pm S 4 7 - - - - - - - 14.3 1022.3 5.0
02/07:00pm SW 7 10 - - - - - - - 14.4 1022.1 3.8
02/06:30pm WSW 10 16 - - - - - - - 14.9 1021.8 1.8
02/06:00pm WSW 9 16 - - - - - - Rain 14.9 1021.6 1.6
02/05:30pm W 9 13 - - - - - - - 15.1 1021.4 0.4
02/05:00pm W 8 14 - - - - - - - 16.1 1021.2 0.0
02/04:30pm W 13 17 - - - - - - - 16.5 1021.2 0.0
02/04:00pm W 14 18 - - - - - - - 16.5 1021.2 0.0
02/03:30pm WNW 10 13 - - - - - - - 17.6 1021.2 0.0
02/03:00pm WNW 11 15 - - - - - - - 18.1 1021.4 0.0
02/02:30pm NW 11 15 - - - - - - - 16.9 1021.5 0.0
02/02:00pm WNW 12 15 - - - - - - - 17.3 1021.6 0.0
02/01:30pm W 11 14 - - - - - - - 17.3 1022.0 0.0
02/01:00pm W 10 14 - - - - - - - 17.3 1022.5 0.0
02/12:30pm WNW 7 10 - - - - - - - 17.3 1022.8 0.0
02/12:00pm W 7 12 - - - - - - - 15.7 1023.0 0.0
02/11:30am WNW 10 13 - - - - - - - 17.0 1023.1 0.0
02/11:00am WNW 12 15 - - - - - - - 16.1 1023.5 0.0
02/10:30am W 9 12 - - - - - - - 15.4 1023.6 0.0
02/10:00am WNW 13 19 - - - - - - - 15.0 1023.6 0.0
02/09:30am WSW 9 14 - - - - - - - 16.0 1023.5 0.0
02/09:00am WSW 14 21 - - - - - - - 15.6 1023.3 0.0
02/08:30am WSW 13 22 - - - - - - - 15.8 1023.1 0.0
02/08:00am WSW 11 15 - - - - - - - 16.0 1022.9 0.0
02/07:30am WSW 13 18 - - - - - - - 16.0 1022.6 0.0
02/07:00am W 12 15 - - - - - - - 15.6 1022.6 0.0
02/06:30am W 10 15 - - - - - - - 15.4 1022.4 0.0
02/06:00am WSW 11 16 - - - - - - - 15.6 1022.2 0.0
02/05:30am SW 8 11 - - - - - - - 15.3 1022.2 0.0
02/05:00am SW 10 16 - - - - - - - 15.4 1022.1 0.0
02/04:30am SW 12 16 - - - - - - - 15.6 1022.1 0.0
02/04:00am W 10 14 - - - - - - - 15.1 1022.2 0.0
02/03:30am W 12 17 - - - - - - - 15.4 1022.4 0.0
02/03:00am W 10 13 - - - - - - - 15.3 1022.5 0.0
02/02:30am W 10 15 - - - - - - - 15.3 1022.8 0.0
02/02:00am W 8 13 - - - - - - - 15.3 1022.8 0.0
02/01:30am WSW 9 11 - - - - - - - 15.3 1023.0 0.0
02/01:00am WSW 10 15 - - - - - - - 15.4 1023.0 0.0
02/12:30am SW 10 13 - - - - - - - 15.6 1023.0 0.0
02/12:00am SW 10 14 - - - - - - - 15.6 1023.2 0.0
 
Date/Time
WST
Wind Sea
Height
m
Swell Vis
km
Cloud Weather Temp
°C
Press
MSL
hPa
Rain since
9am
mm
Dir  Spd
kts
Gust
kts
Height
m
Period
s
Dir
01/11:30pm SW 9 11 - - - - - - - 15.6 1023.4 0.0
01/11:00pm SW 3 6 - - - - - - - 15.2 1023.5 0.0
01/10:30pm SW 2 5 - - - - - - - 15.1 1023.8 0.0
01/10:00pm SSW 3 7 - - - - - - - 15.3 1024.1 0.0
01/09:30pm SSW 1 7 - - - - - - - 15.2 1024.2 0.0
01/09:00pm SSW 1 5 - - - - - - - 15.2 1024.3 0.0
01/08:30pm SSW 3 6 - - - - - - - 15.1 1024.3 0.0
01/08:00pm SSW 5 8 - - - - - - - 15.2 1024.3 0.0
01/07:30pm S 6 8 - - - - - - - 15.2 1024.2 0.0
01/07:00pm S 6 8 - - - - - - - 15.2 1024.1 0.0
01/06:30pm SSW 7 8 - - - - - - - 15.2 1024.1 0.0
01/06:00pm SSW 6 8 - - - - - - - 15.0 1024.2 0.0
01/05:30pm SW 6 9 - - - - - - - 15.2 1024.1 0.0
01/05:00pm SW 6 8 - - - - - - - 15.4 1024.2 0.0
01/04:30pm SW 7 9 - - - - - - - 16.0 1024.1 0.0
01/04:00pm SSW 6 7 - - - - - - - 15.9 1024.0 0.0
01/03:30pm SW 6 10 - - - - - - - 15.9 1024.0 0.0
01/03:00pm SW 7 9 - - - - - - - 16.0 1024.1 0.0
01/02:30pm SW 8 11 - - - - - - - 15.9 1024.2 0.0
01/02:00pm SSW 8 11 - - - - - - - 16.2 1024.3 0.0
01/01:30pm SSW 10 12 - - - - - - - 16.1 1024.5 0.0
01/01:00pm S 11 13 - - - - - - - 15.9 1024.7 0.0
01/12:30pm S 12 14 - - - - - - - 16.0 1024.8 0.0
01/12:00pm SSW 9 13 - - - - - - - 16.3 1025.2 0.0
01/11:30am SSE 6 11 - - - - - - - 16.3 1025.4 0.0
01/11:00am CALM 0 3 - - - - - - - 16.7 1025.5 0.0
01/10:30am ESE 5 7 - - - - - - - 16.6 1025.6 0.0
01/10:00am SE 7 9 - - - - - - - 16.1 1025.5 0.0
01/09:30am SE 5 8 - - - - - - - 15.4 1025.7 0.0
01/09:00am SE 6 9 - - - - - - - 14.7 1025.7 0.8
01/08:30am SE 7 9 - - - - - - - 13.8 1025.5 0.8
01/08:00am SE 7 9 - - - - - - - 12.8 1025.5 0.8
01/07:30am SE 8 10 - - - - - - - 12.0 1025.2 0.8
01/07:00am SE 6 8 - - - - - - - 10.8 1025.0 0.8
01/06:30am SE 7 8 - - - - - - - 10.5 1024.6 0.8
01/06:00am SE 7 8 - - - - - - - 11.5 1024.4 0.8
01/05:30am SE 6 7 - - - - - - - 11.2 1024.1 0.8
01/05:00am SE 7 9 - - - - - - - 11.8 1023.9 0.8
01/04:30am SE 8 10 - - - - - - - 12.4 1023.5 0.8
01/04:00am SSE 9 11 - - - - - - - 12.5 1023.2 0.8
01/03:30am SE 9 11 - - - - - - - 12.9 1023.1 0.8
01/03:00am SE 9 11 - - - - - - - 12.7 1023.1 0.8
01/02:30am SE 9 11 - - - - - - - 12.9 1023.2 0.8
01/02:00am SE 10 11 - - - - - - - 12.9 1023.3 0.8
01/01:30am SSE 10 12 - - - - - - - 13.3 1023.4 0.8
01/01:00am SSE 11 14 - - - - - - - 13.3 1023.6 0.8
01/12:30am SSE 13 15 - - - - - - - 13.3 1023.4 0.8
01/12:00am SSE 17 22 - - - - - - - 13.8 1023.5 0.8
 
Date/Time
WST
Wind Sea
Height
m
Swell Vis
km
Cloud Weather Temp
°C
Press
MSL
hPa
Rain since
9am
mm
Dir  Spd
kts
Gust
kts
Height
m
Period
s
Dir
31/11:30pm S 22 26 - - - - - - - 14.1 1023.6 0.8
31/11:00pm S 25 29 - - - - - - - 13.8 1023.6 0.8
31/10:30pm S 27 32 - - - - - - - 13.9 1023.3 0.8
31/10:00pm S 23 31 - - - - - - - 14.8 1022.8 0.6
31/09:30pm S 23 27 - - - - - - - 15.2 1022.5 0.6
31/09:00pm S 24 28 - - - - - - Recent precip. 15.7 1022.0 0.6
31/08:30pm S 24 28 - - - - - - - 15.8 1021.7 0.6
31/08:00pm SSW 20 23 - - - - - - - 16.0 1021.3 0.4
31/07:53pm SSW 19 23 - - - - - - - 16.0 1021.2 0.2
31/07:30pm WSW 16 24 - - - - - - - 17.3 1021.0 0.0
31/07:00pm W 15 18 - - - - - - - 18.6 1020.7 0.0
31/06:30pm W 13 17 - - - - - - - 18.5 1020.5 0.0
31/06:00pm W 15 18 - - - - - - - 18.5 1020.2 0.0
31/05:30pm W 15 19 - - - - - - - 18.3 1019.9 0.0
31/05:00pm WNW 12 15 - - - - - - - 18.9 1019.7 0.0
31/04:30pm W 12 15 - - - - - - - 18.9 1019.5 0.0
31/04:00pm W 12 16 - - - - - - - 20.0 1019.5 0.0
31/03:30pm W 13 16 - - - - - - - 19.8 1019.6 0.0
31/03:00pm W 12 16 - - - - - - - 19.7 1019.6 0.0
31/02:30pm WNW 12 15 - - - - - - - 20.5 1019.4 0.0
31/02:00pm W 12 14 - - - - - - - 20.2 1019.3 0.0
31/01:30pm WNW 9 11 - - - - - - - 20.5 1019.1 0.0
31/01:00pm WNW 9 11 - - - - - - - 20.2 1019.3 0.0
31/12:30pm WNW 10 15 - - - - - - - 20.2 1019.4 0.0
31/12:00pm NW 12 15 - - - - - - - 20.9 1019.4 0.0
31/11:30am NW 11 13 - - - - - - - 20.3 1019.6 0.0
31/11:00am NW 11 13 - - - - - - - 20.4 1019.7 0.0
31/10:30am NW 10 12 - - - - - - - 20.2 1019.5 0.0
31/10:00am NW 8 10 - - - - - - - 19.8 1019.4 0.0
31/09:30am NW 8 11 - - - - - - - 19.6 1019.5 0.0
31/09:00am WNW 9 11 - - - - - - - 19.1 1019.5 0.0
31/08:30am WNW 8 10 - - - - - - - 18.7 1019.4 0.0
31/08:00am WNW 9 11 - - - - - - - 18.0 1019.3 0.0
31/07:30am WNW 6 9 - - - - - - - 17.1 1019.1 0.0
31/07:00am WNW 8 10 - - - - - - - 16.8 1018.8 0.0
31/06:30am W 10 11 - - - - - - - 16.8 1018.6 0.0
31/06:00am W 9 12 - - - - - - - 16.6 1018.4 0.0
31/05:30am W 7 8 - - - - - - - 15.6 1018.1 0.0
31/05:00am CALM 0 0 - - - - - - - 15.2 1018.0 0.0
31/04:30am CALM 0 0 - - - - - - - 14.8 1017.9 0.0
31/04:00am CALM 0 0 - - - - - - - 15.7 1018.2 0.0
31/03:30am N 4 5 - - - - - - - 15.4 1018.3 0.0
31/03:00am NNE 5 5 - - - - - - - 14.5 1018.6 0.0
31/02:30am NNE 5 5 - - - - - - - 14.6 1018.6 0.0
31/02:00am CALM 0 0 - - - - - - - 15.0 1018.6 0.0

Other formats

Comma delimited format used in spreadsheet applications
http://www.bom.gov.au/fwo/IDW60701/IDW60701.95607.axf

JavaScript Object Notation format (JSON) in row-major order
http://www.bom.gov.au/fwo/IDW60701/IDW60701.95607.json

Data quality

Most of these data are generated automatically and are frequently updated. Quality checks on data are not normally performed. It is possible for incorrect values to appear. Refer to information at About Latest Weather Observations and please check the disclaimer before using these data.